Current Weather

Hayward Exec

Hayward, California (KHWD)

Report from: Friday, April 19, 2024 12:54 AM PDT
Current time: Friday, April 19, 2024 1:56 AM PDT

Nearby weather – Weather history – Daily summaries
Weather forecast

Temperature12.2°C (54.0°F)
Dew point9.4°C (48.9°F)
Winds Calm
Visibility8 mi. (12.9 km)
Clouds Sky clear
Altimeter29.96 in.Hg (1015 mB)
Relative humidity83 %
Density altitude-239 ft. (-73 m)
Sea-level pressure101.5 kPa (1015 mB, 29.98 in.Hg)
Max temp last 24 hours23.9°C (75.0°F)
Min temp last 24 hours12.2°C (54.0°F)
Remarks Fully automated report
System requires maintenance
Automated weather observing station with precipitation discriminator
Flight conditions Visual Meteorological Conditions
Raw dataKHWD 190754Z AUTO 00000KT 8SM CLR 12/09 A2996 RMK AO2 SLP154 T01220094 402390122 $
An error has occurred. This application may no longer respond until reloaded. Reload 🗙